sensor_id;sensor_type;location;lat;lon;timestamp;pressure;altitude;pressure_sealevel;temperature;humidity
804;BME280;25687;49.976;8.240;2022-11-14T00:02:02;100160.31;;;2.24;100.00
804;BME280;25687;49.976;8.240;2022-11-14T00:04:27;100159.38;;;2.28;100.00
804;BME280;25687;49.976;8.240;2022-11-14T00:06:52;100156.94;;;2.23;100.00
804;BME280;25687;49.976;8.240;2022-11-14T00:09:18;100152.03;;;2.14;100.00
804;BME280;25687;49.976;8.240;2022-11-14T00:11:43;100151.19;;;2.14;100.00
804;BME280;25687;49.976;8.240;2022-11-14T00:14:09;100153.84;;;2.06;100.00
804;BME280;25687;49.976;8.240;2022-11-14T00:16:35;100156.28;;;2.14;100.00
804;BME280;25687;49.976;8.240;2022-11-14T00:19:00;100154.38;;;2.25;100.00
804;BME280;25687;49.976;8.240;2022-11-14T00:21:26;100158.28;;;2.41;100.00
804;BME280;25687;49.976;8.240;2022-11-14T00:23:51;100155.44;;;2.55;100.00
804;BME280;25687;49.976;8.240;2022-11-14T00:26:16;100151.88;;;2.66;100.00
804;BME280;25687;49.976;8.240;2022-11-14T00:28:41;100155.19;;;2.68;100.00
804;BME280;25687;49.976;8.240;2022-11-14T00:31:08;100149.31;;;2.66;100.00
804;BME280;25687;49.976;8.240;2022-11-14T00:33:34;100146.41;;;2.84;100.00
804;BME280;25687;49.976;8.240;2022-11-14T00:35:59;100153.16;;;2.85;100.00
804;BME280;25687;49.976;8.240;2022-11-14T00:38:24;100156.66;;;2.80;100.00
804;BME280;25687;49.976;8.240;2022-11-14T00:40:50;100148.84;;;2.87;100.00
804;BME280;25687;49.976;8.240;2022-11-14T00:43:15;100148.75;;;2.92;100.00
804;BME280;25687;49.976;8.240;2022-11-14T00:45:43;100146.81;;;3.03;100.00
804;BME280;25687;49.976;8.240;2022-11-14T00:48:08;100142.63;;;3.01;100.00
804;BME280;25687;49.976;8.240;2022-11-14T00:50:33;100147.56;;;3.07;100.00
804;BME280;25687;49.976;8.240;2022-11-14T00:52:59;100147.75;;;2.99;100.00
804;BME280;25687;49.976;8.240;2022-11-14T00:55:24;100143.19;;;3.14;100.00
804;BME280;25687;49.976;8.240;2022-11-14T00:57:49;100143.19;;;3.14;100.00
804;BME280;25687;49.976;8.240;2022-11-14T01:00:14;100148.25;;;3.15;100.00
804;BME280;25687;49.976;8.240;2022-11-14T01:02:40;100139.22;;;3.02;100.00
804;BME280;25687;49.976;8.240;2022-11-14T01:05:05;100147.81;;;2.96;100.00
804;BME280;25687;49.976;8.240;2022-11-14T01:07:31;100136.75;;;2.99;100.00
804;BME280;25687;49.976;8.240;2022-11-14T01:09:56;100139.47;;;2.91;100.00
804;BME280;25687;49.976;8.240;2022-11-14T01:12:21;100133.00;;;2.76;100.00
804;BME280;25687;49.976;8.240;2022-11-14T01:14:47;100134.03;;;2.67;100.00
804;BME280;25687;49.976;8.240;2022-11-14T01:17:12;100140.91;;;2.64;100.00
804;BME280;25687;49.976;8.240;2022-11-14T01:19:40;100136.66;;;2.64;100.00
804;BME280;25687;49.976;8.240;2022-11-14T01:22:05;100145.16;;;2.62;100.00
804;BME280;25687;49.976;8.240;2022-11-14T01:24:31;100141.56;;;2.72;100.00
804;BME280;25687;49.976;8.240;2022-11-14T01:26:57;100137.22;;;2.77;100.00
804;BME280;25687;49.976;8.240;2022-11-14T01:29:23;100140.53;;;2.81;100.00
804;BME280;25687;49.976;8.240;2022-11-14T01:31:48;100147.28;;;2.82;100.00
804;BME280;25687;49.976;8.240;2022-11-14T01:34:13;100137.97;;;2.82;100.00
804;BME280;25687;49.976;8.240;2022-11-14T01:36:39;100144.75;;;2.82;100.00
804;BME280;25687;49.976;8.240;2022-11-14T01:39:04;100136.00;;;2.94;100.00
804;BME280;25687;49.976;8.240;2022-11-14T01:41:29;100133.28;;;3.01;100.00
804;BME280;25687;49.976;8.240;2022-11-14T01:43:54;100142.03;;;2.89;100.00
804;BME280;25687;49.976;8.240;2022-11-14T01:46:32;100125.81;;;2.95;100.00
804;BME280;25687;49.976;8.240;2022-11-14T01:49:24;100126.56;;;2.99;100.00
804;BME280;25687;49.976;8.240;2022-11-14T01:51:58;100120.59;;;3.01;100.00
804;BME280;25687;49.976;8.240;2022-11-14T01:54:31;100110.88;;;3.19;100.00
804;BME280;25687;49.976;8.240;2022-11-14T01:57:00;100107.44;;;3.20;100.00
804;BME280;25687;49.976;8.240;2022-11-14T01:59:37;100106.63;;;3.19;100.00
804;BME280;25687;49.976;8.240;2022-11-14T02:02:07;100105.50;;;2.94;100.00
804;BME280;25687;49.976;8.240;2022-11-14T02:04:38;100097.31;;;3.18;100.00
804;BME280;25687;49.976;8.240;2022-11-14T02:07:06;100090.41;;;3.25;100.00
804;BME280;25687;49.976;8.240;2022-11-14T02:09:37;100086.19;;;3.24;100.00
804;BME280;25687;49.976;8.240;2022-11-14T02:12:05;100083.56;;;3.27;100.00
804;BME280;25687;49.976;8.240;2022-11-14T02:14:32;100084.31;;;3.31;100.00
804;BME280;25687;49.976;8.240;2022-11-14T02:16:58;100080.13;;;3.28;100.00
804;BME280;25687;49.976;8.240;2022-11-14T02:19:23;100083.19;;;3.43;100.00
804;BME280;25687;49.976;8.240;2022-11-14T02:21:49;100076.47;;;3.38;100.00
804;BME280;25687;49.976;8.240;2022-11-14T02:24:14;100078.81;;;3.48;100.00
804;BME280;25687;49.976;8.240;2022-11-14T02:26:40;100086.94;;;3.62;100.00
804;BME280;25687;49.976;8.240;2022-11-14T02:29:08;100075.63;;;3.72;100.00
804;BME280;25687;49.976;8.240;2022-11-14T02:31:33;100076.94;;;3.54;100.00
804;BME280;25687;49.976;8.240;2022-11-14T02:33:59;100076.81;;;3.59;100.00
804;BME280;25687;49.976;8.240;2022-11-14T02:36:24;100071.53;;;3.67;100.00
804;BME280;25687;49.976;8.240;2022-11-14T02:38:50;100075.84;;;3.65;100.00
804;BME280;25687;49.976;8.240;2022-11-14T02:41:15;100074.38;;;3.56;100.00
804;BME280;25687;49.976;8.240;2022-11-14T02:43:41;100067.50;;;3.58;100.00
804;BME280;25687;49.976;8.240;2022-11-14T02:46:06;100068.22;;;3.63;100.00
804;BME280;25687;49.976;8.240;2022-11-14T02:48:31;100071.84;;;3.54;100.00
804;BME280;25687;49.976;8.240;2022-11-14T02:50:57;100063.72;;;3.42;100.00
804;BME280;25687;49.976;8.240;2022-11-14T02:53:22;100071.38;;;3.40;100.00
804;BME280;25687;49.976;8.240;2022-11-14T02:55:47;100059.44;;;3.44;100.00
804;BME280;25687;49.976;8.240;2022-11-14T02:58:12;100053.59;;;3.38;100.00
804;BME280;25687;49.976;8.240;2022-11-14T03:00:38;100049.75;;;3.57;100.00
804;BME280;25687;49.976;8.240;2022-11-14T03:03:03;100061.16;;;3.42;100.00
804;BME280;25687;49.976;8.240;2022-11-14T03:05:28;100055.13;;;3.46;100.00
804;BME280;25687;49.976;8.240;2022-11-14T03:07:54;100050.13;;;3.41;100.00
804;BME280;25687;49.976;8.240;2022-11-14T03:10:21;100058.22;;;3.57;100.00
804;BME280;25687;49.976;8.240;2022-11-14T03:12:52;100043.97;;;3.51;100.00
804;BME280;25687;49.976;8.240;2022-11-14T03:15:18;100039.13;;;3.74;100.00
804;BME280;25687;49.976;8.240;2022-11-14T03:17:43;100033.94;;;3.77;100.00
804;BME280;25687;49.976;8.240;2022-11-14T03:20:09;100035.75;;;3.73;100.00
804;BME280;25687;49.976;8.240;2022-11-14T03:22:34;100031.47;;;3.75;100.00
804;BME280;25687;49.976;8.240;2022-11-14T03:24:59;100031.47;;;3.75;100.00
804;BME280;25687;49.976;8.240;2022-11-14T03:27:25;100032.44;;;3.69;100.00
804;BME280;25687;49.976;8.240;2022-11-14T03:29:50;100024.75;;;3.72;100.00
804;BME280;25687;49.976;8.240;2022-11-14T03:32:15;100021.50;;;3.66;100.00
804;BME280;25687;49.976;8.240;2022-11-14T03:34:41;100017.75;;;3.81;100.00
804;BME280;25687;49.976;8.240;2022-11-14T03:37:07;100016.78;;;3.85;100.00
804;BME280;25687;49.976;8.240;2022-11-14T03:39:32;100015.09;;;3.84;100.00
804;BME280;25687;49.976;8.240;2022-11-14T03:41:57;100022.56;;;3.90;100.00
804;BME280;25687;49.976;8.240;2022-11-14T03:44:23;100018.63;;;3.78;100.00
804;BME280;25687;49.976;8.240;2022-11-14T03:46:48;100018.56;;;3.81;100.00
804;BME280;25687;49.976;8.240;2022-11-14T03:49:13;100015.50;;;3.70;100.00
804;BME280;25687;49.976;8.240;2022-11-14T03:51:38;100023.25;;;3.65;100.00
804;BME280;25687;49.976;8.240;2022-11-14T03:54:04;100018.09;;;3.68;100.00
804;BME280;25687;49.976;8.240;2022-11-14T03:56:29;100017.13;;;3.72;100.00
804;BME280;25687;49.976;8.240;2022-11-14T03:58:54;100007.63;;;3.78;100.00
804;BME280;25687;49.976;8.240;2022-11-14T04:01:19;100000.94;;;3.75;100.00
804;BME280;25687;49.976;8.240;2022-11-14T04:03:45;100003.63;;;3.69;100.00
804;BME280;25687;49.976;8.240;2022-11-14T04:06:10;100015.66;;;3.64;100.00
804;BME280;25687;49.976;8.240;2022-11-14T04:08:35;100013.00;;;3.68;100.00
804;BME280;25687;49.976;8.240;2022-11-14T04:11:03;100016.59;;;3.60;100.00
804;BME280;25687;49.976;8.240;2022-11-14T04:13:28;100016.41;;;3.67;100.00
804;BME280;25687;49.976;8.240;2022-11-14T04:15:57;100006.31;;;3.64;100.00
804;BME280;25687;49.976;8.240;2022-11-14T04:18:23;100006.72;;;3.80;100.00
804;BME280;25687;49.976;8.240;2022-11-14T04:20:49;100011.56;;;3.90;100.00
804;BME280;25687;49.976;8.240;2022-11-14T04:23:14;100009.34;;;3.77;100.00
804;BME280;25687;49.976;8.240;2022-11-14T04:25:42;100007.56;;;3.81;100.00
804;BME280;25687;49.976;8.240;2022-11-14T04:28:08;100009.78;;;3.92;100.00
804;BME280;25687;49.976;8.240;2022-11-14T04:30:33;99999.00;;;3.83;100.00
804;BME280;25687;49.976;8.240;2022-11-14T04:32:58;99994.22;;;4.02;100.00
804;BME280;25687;49.976;8.240;2022-11-14T04:35:23;99993.69;;;3.91;100.00
804;BME280;25687;49.976;8.240;2022-11-14T04:37:49;99997.47;;;4.08;100.00
804;BME280;25687;49.976;8.240;2022-11-14T04:40:14;99991.44;;;4.10;100.00
804;BME280;25687;49.976;8.240;2022-11-14T04:42:39;99990.75;;;4.05;100.00
804;BME280;25687;49.976;8.240;2022-11-14T04:45:05;99998.25;;;4.10;100.00
804;BME280;25687;49.976;8.240;2022-11-14T04:47:31;99979.50;;;4.12;100.00
804;BME280;25687;49.976;8.240;2022-11-14T04:49:56;99986.19;;;3.86;100.00
804;BME280;25687;49.976;8.240;2022-11-14T04:52:22;99982.63;;;4.22;100.00
804;BME280;25687;49.976;8.240;2022-11-14T04:54:47;99981.56;;;4.29;100.00
804;BME280;25687;49.976;8.240;2022-11-14T04:57:12;99983.31;;;4.27;100.00
804;BME280;25687;49.976;8.240;2022-11-14T04:59:38;99982.31;;;4.31;100.00
804;BME280;25687;49.976;8.240;2022-11-14T05:02:03;99979.03;;;4.28;100.00
804;BME280;25687;49.976;8.240;2022-11-14T05:04:28;99971.06;;;4.10;100.00
804;BME280;25687;49.976;8.240;2022-11-14T05:06:54;99975.94;;;4.18;100.00
804;BME280;25687;49.976;8.240;2022-11-14T05:09:19;99972.78;;;4.10;100.00
804;BME280;25687;49.976;8.240;2022-11-14T05:11:53;99976.53;;;3.98;100.00
804;BME280;25687;49.976;8.240;2022-11-14T05:14:18;99973.56;;;4.12;100.00
804;BME280;25687;49.976;8.240;2022-11-14T05:16:44;99970.31;;;4.08;100.00
804;BME280;25687;49.976;8.240;2022-11-14T05:19:09;99964.22;;;4.12;100.00
804;BME280;25687;49.976;8.240;2022-11-14T05:21:34;99965.34;;;4.03;100.00
804;BME280;25687;49.976;8.240;2022-11-14T05:23:59;99963.34;;;4.13;100.00
804;BME280;25687;49.976;8.240;2022-11-14T05:26:25;99958.34;;;4.10;100.00
804;BME280;25687;49.976;8.240;2022-11-14T05:28:50;99967.72;;;4.10;100.00
804;BME280;25687;49.976;8.240;2022-11-14T05:31:15;99969.75;;;3.98;100.00
804;BME280;25687;49.976;8.240;2022-11-14T05:33:42;99975.78;;;3.94;100.00
804;BME280;25687;49.976;8.240;2022-11-14T05:36:13;99974.78;;;4.00;100.00
804;BME280;25687;49.976;8.240;2022-11-14T05:38:39;99961.13;;;4.02;100.00
804;BME280;25687;49.976;8.240;2022-11-14T05:41:10;99956.72;;;4.08;100.00
804;BME280;25687;49.976;8.240;2022-11-14T05:43:36;99954.19;;;4.08;100.00
804;BME280;25687;49.976;8.240;2022-11-14T05:46:04;99945.91;;;4.01;100.00
804;BME280;25687;49.976;8.240;2022-11-14T05:48:30;99949.22;;;4.03;100.00
804;BME280;25687;49.976;8.240;2022-11-14T05:50:58;99955.66;;;3.86;100.00
804;BME280;25687;49.976;8.240;2022-11-14T05:53:25;99947.78;;;3.94;100.00
804;BME280;25687;49.976;8.240;2022-11-14T05:55:51;99944.22;;;4.00;100.00
804;BME280;25687;49.976;8.240;2022-11-14T05:58:17;99943.34;;;4.01;100.00
804;BME280;25687;49.976;8.240;2022-11-14T06:00:42;99947.78;;;3.94;100.00
804;BME280;25687;49.976;8.240;2022-11-14T06:03:07;99952.69;;;4.00;100.00
804;BME280;25687;49.976;8.240;2022-11-14T06:05:34;99956.31;;;3.93;100.00
804;BME280;25687;49.976;8.240;2022-11-14T06:07:59;99954.78;;;3.87;100.00
804;BME280;25687;49.976;8.240;2022-11-14T06:10:25;99952.28;;;3.86;100.00
804;BME280;25687;49.976;8.240;2022-11-14T06:12:50;99948.88;;;3.85;100.00
804;BME280;25687;49.976;8.240;2022-11-14T06:15:16;99949.25;;;3.73;100.00
804;BME280;25687;49.976;8.240;2022-11-14T06:17:41;99956.53;;;3.85;100.00
804;BME280;25687;49.976;8.240;2022-11-14T06:20:07;99970.47;;;3.72;100.00
804;BME280;25687;49.976;8.240;2022-11-14T06:22:33;99967.06;;;3.73;100.00
804;BME280;25687;49.976;8.240;2022-11-14T06:25:00;99964.25;;;3.82;100.00
804;BME280;25687;49.976;8.240;2022-11-14T06:27:25;99963.84;;;3.66;100.00
804;BME280;25687;49.976;8.240;2022-11-14T06:29:50;99969.22;;;3.55;100.00
804;BME280;25687;49.976;8.240;2022-11-14T06:32:15;99965.13;;;3.51;100.00
804;BME280;25687;49.976;8.240;2022-11-14T06:34:41;99958.84;;;3.63;100.00
804;BME280;25687;49.976;8.240;2022-11-14T06:37:06;99961.94;;;3.75;100.00
804;BME280;25687;49.976;8.240;2022-11-14T06:39:31;99962.47;;;3.56;100.00
804;BME280;25687;49.976;8.240;2022-11-14T06:41:57;99958.31;;;3.52;100.00
804;BME280;25687;49.976;8.240;2022-11-14T06:44:22;99954.50;;;3.67;100.00
804;BME280;25687;49.976;8.240;2022-11-14T06:46:48;99949.94;;;3.78;100.00
804;BME280;25687;49.976;8.240;2022-11-14T06:49:13;99948.69;;;3.93;100.00
804;BME280;25687;49.976;8.240;2022-11-14T06:51:40;99943.66;;;3.90;100.00
804;BME280;25687;49.976;8.240;2022-11-14T06:54:06;99943.44;;;3.98;100.00
804;BME280;25687;49.976;8.240;2022-11-14T06:56:31;99941.75;;;3.97;100.00
804;BME280;25687;49.976;8.240;2022-11-14T06:58:56;99936.59;;;4.00;100.00
804;BME280;25687;49.976;8.240;2022-11-14T07:01:23;99938.41;;;3.96;100.00
804;BME280;25687;49.976;8.240;2022-11-14T07:03:50;99937.16;;;4.10;100.00
804;BME280;25687;49.976;8.240;2022-11-14T07:06:24;99946.91;;;3.95;100.00
804;BME280;25687;49.976;8.240;2022-11-14T07:08:54;99934.38;;;3.89;100.00
804;BME280;25687;49.976;8.240;2022-11-14T07:11:22;99936.72;;;3.95;100.00
804;BME280;25687;49.976;8.240;2022-11-14T07:13:52;99934.50;;;4.13;100.00
804;BME280;25687;49.976;8.240;2022-11-14T07:16:18;99935.72;;;4.29;100.00
804;BME280;25687;49.976;8.240;2022-11-14T07:18:43;99933.75;;;4.38;100.00
804;BME280;25687;49.976;8.240;2022-11-14T07:21:09;99939.22;;;4.25;100.00
804;BME280;25687;49.976;8.240;2022-11-14T07:23:37;99943.53;;;4.50;100.00
804;BME280;25687;49.976;8.240;2022-11-14T07:26:05;99953.78;;;4.48;100.00
804;BME280;25687;49.976;8.240;2022-11-14T07:28:34;99951.44;;;4.69;100.00
804;BME280;25687;49.976;8.240;2022-11-14T07:31:05;99947.13;;;4.44;100.00
804;BME280;25687;49.976;8.240;2022-11-14T07:33:31;99932.97;;;4.35;100.00
804;BME280;25687;49.976;8.240;2022-11-14T07:35:56;99921.81;;;4.40;100.00
804;BME280;25687;49.976;8.240;2022-11-14T07:38:21;99931.38;;;4.31;100.00
804;BME280;25687;49.976;8.240;2022-11-14T07:40:53;99944.13;;;4.31;100.00
804;BME280;25687;49.976;8.240;2022-11-14T07:43:19;99949.22;;;4.31;100.00
804;BME280;25687;49.976;8.240;2022-11-14T07:45:44;99951.03;;;4.55;100.00
804;BME280;25687;49.976;8.240;2022-11-14T07:48:09;99952.06;;;4.49;100.00
804;BME280;25687;49.976;8.240;2022-11-14T07:50:35;99958.00;;;4.49;100.00
804;BME280;25687;49.976;8.240;2022-11-14T07:53:00;99960.38;;;4.81;100.00
804;BME280;25687;49.976;8.240;2022-11-14T07:55:25;99961.34;;;5.04;100.00
804;BME280;25687;49.976;8.240;2022-11-14T07:57:52;99953.16;;;5.19;100.00
804;BME280;25687;49.976;8.240;2022-11-14T08:00:18;99949.53;;;5.26;100.00
804;BME280;25687;49.976;8.240;2022-11-14T08:02:44;99946.53;;;5.39;100.00
804;BME280;25687;49.976;8.240;2022-11-14T08:05:10;99956.81;;;5.12;100.00
804;BME280;25687;49.976;8.240;2022-11-14T08:07:35;99966.06;;;5.14;100.00
804;BME280;25687;49.976;8.240;2022-11-14T08:10:01;99953.78;;;5.26;100.00
804;BME280;25687;49.976;8.240;2022-11-14T08:12:26;99950.44;;;5.00;100.00
804;BME280;25687;49.976;8.240;2022-11-14T08:14:51;99941.78;;;5.04;100.00
804;BME280;25687;49.976;8.240;2022-11-14T08:17:16;99945.88;;;5.08;100.00
804;BME280;25687;49.976;8.240;2022-11-14T08:19:42;99941.25;;;4.94;100.00
804;BME280;25687;49.976;8.240;2022-11-14T08:22:07;99953.84;;;5.24;100.00
804;BME280;25687;49.976;8.240;2022-11-14T08:24:32;99945.97;;;5.30;100.00
804;BME280;25687;49.976;8.240;2022-11-14T08:26:58;99942.03;;;5.22;100.00
804;BME280;25687;49.976;8.240;2022-11-14T08:29:23;99955.13;;;5.11;100.00
804;BME280;25687;49.976;8.240;2022-11-14T08:31:49;99947.50;;;5.11;100.00
804;BME280;25687;49.976;8.240;2022-11-14T08:34:14;99947.34;;;5.15;100.00
804;BME280;25687;49.976;8.240;2022-11-14T08:36:39;99961.44;;;5.26;100.00
804;BME280;25687;49.976;8.240;2022-11-14T08:39:05;99954.47;;;5.31;100.00
804;BME280;25687;49.976;8.240;2022-11-14T08:41:33;99956.53;;;5.20;100.00
804;BME280;25687;49.976;8.240;2022-11-14T08:43:58;99961.44;;;5.26;100.00
804;BME280;25687;49.976;8.240;2022-11-14T08:46:23;99964.59;;;5.07;100.00
804;BME280;25687;49.976;8.240;2022-11-14T08:48:49;99959.88;;;5.22;100.00
804;BME280;25687;49.976;8.240;2022-11-14T08:51:14;99952.31;;;5.44;100.00
804;BME280;25687;49.976;8.240;2022-11-14T08:53:39;99957.25;;;5.48;100.00
804;BME280;25687;49.976;8.240;2022-11-14T08:56:05;99955.81;;;5.65;100.00
804;BME280;25687;49.976;8.240;2022-11-14T08:58:31;99951.81;;;5.34;100.00
804;BME280;25687;49.976;8.240;2022-11-14T09:01:00;99955.56;;;5.24;100.00
804;BME280;25687;49.976;8.240;2022-11-14T09:03:26;99954.72;;;5.23;100.00
804;BME280;25687;49.976;8.240;2022-11-14T09:05:52;99957.88;;;5.06;100.00
804;BME280;25687;49.976;8.240;2022-11-14T09:08:17;99965.41;;;5.09;100.00
804;BME280;25687;49.976;8.240;2022-11-14T09:10:42;99972.22;;;5.34;100.00
804;BME280;25687;49.976;8.240;2022-11-14T09:13:07;99976.84;;;5.23;100.00
804;BME280;25687;49.976;8.240;2022-11-14T09:15:33;99975.53;;;5.36;100.00
804;BME280;25687;49.976;8.240;2022-11-14T09:17:58;99967.91;;;5.60;100.00
804;BME280;25687;49.976;8.240;2022-11-14T09:20:24;99957.84;;;5.55;100.00
804;BME280;25687;49.976;8.240;2022-11-14T09:22:50;99961.13;;;5.35;100.00
804;BME280;25687;49.976;8.240;2022-11-14T09:25:18;99952.00;;;5.28;100.00
804;BME280;25687;49.976;8.240;2022-11-14T09:27:43;99947.63;;;5.31;100.00
804;BME280;25687;49.976;8.240;2022-11-14T09:30:09;99939.56;;;5.44;100.00
804;BME280;25687;49.976;8.240;2022-11-14T09:32:35;99936.56;;;5.56;100.00
804;BME280;25687;49.976;8.240;2022-11-14T09:35:00;99935.44;;;5.63;100.00
804;BME280;25687;49.976;8.240;2022-11-14T09:37:25;99927.88;;;5.62;100.00
804;BME280;25687;49.976;8.240;2022-11-14T09:39:51;99932.38;;;5.77;100.00
804;BME280;25687;49.976;8.240;2022-11-14T09:45:12;99942.59;;;6.01;100.00
804;BME280;25687;49.976;8.240;2022-11-14T09:47:49;99932.28;;;6.26;100.00
804;BME280;25687;49.976;8.240;2022-11-14T09:50:23;99937.31;;;6.28;100.00
804;BME280;25687;49.976;8.240;2022-11-14T09:52:55;99932.44;;;6.44;100.00
804;BME280;25687;49.976;8.240;2022-11-14T09:55:32;99929.78;;;6.68;100.00
804;BME280;25687;49.976;8.240;2022-11-14T09:58:00;99936.88;;;6.82;100.00
804;BME280;25687;49.976;8.240;2022-11-14T10:00:33;99939.59;;;6.77;100.00
804;BME280;25687;49.976;8.240;2022-11-14T10:03:14;99938.19;;;6.49;100.00
804;BME280;25687;49.976;8.240;2022-11-14T10:08:25;99931.78;;;6.39;100.00
804;BME280;25687;49.976;8.240;2022-11-14T10:10:59;99938.75;;;6.56;100.00
804;BME280;25687;49.976;8.240;2022-11-14T10:19:32;99913.31;;;6.73;100.00
804;BME280;25687;49.976;8.240;2022-11-14T10:22:21;99916.72;;;6.94;100.00
804;BME280;25687;49.976;8.240;2022-11-14T10:27:30;99895.31;;;7.56;100.00
804;BME280;25687;49.976;8.240;2022-11-14T10:30:01;99900.81;;;7.85;100.00
804;BME280;25687;49.976;8.240;2022-11-14T10:35:18;99901.00;;;7.99;100.00
804;BME280;25687;49.976;8.240;2022-11-14T10:38:02;99915.53;;;7.99;100.00
804;BME280;25687;49.976;8.240;2022-11-14T10:40:50;99907.19;;;7.76;100.00
804;BME280;25687;49.976;8.240;2022-11-14T10:43:24;99895.56;;;7.88;100.00
804;BME280;25687;49.976;8.240;2022-11-14T10:46:00;99893.50;;;7.58;100.00
804;BME280;25687;49.976;8.240;2022-11-14T10:48:30;99891.53;;;7.82;100.00
804;BME280;25687;49.976;8.240;2022-11-14T10:51:00;99872.91;;;7.98;100.00
804;BME280;25687;49.976;8.240;2022-11-14T10:55:56;99855.00;;;7.79;100.00
804;BME280;25687;49.976;8.240;2022-11-14T10:58:22;99860.84;;;7.63;100.00
804;BME280;25687;49.976;8.240;2022-11-14T11:00:48;99850.84;;;7.76;100.00
804;BME280;25687;49.976;8.240;2022-11-14T11:03:13;99847.19;;;7.63;100.00
804;BME280;25687;49.976;8.240;2022-11-14T11:05:59;99853.88;;;7.84;100.00
804;BME280;25687;49.976;8.240;2022-11-14T11:08:25;99849.81;;;7.80;100.00
804;BME280;25687;49.976;8.240;2022-11-14T11:11:18;99842.19;;;8.15;100.00
804;BME280;25687;49.976;8.240;2022-11-14T11:13:58;99840.06;;;8.23;100.00
804;BME280;25687;49.976;8.240;2022-11-14T11:16:26;99836.50;;;8.08;100.00
804;BME280;25687;49.976;8.240;2022-11-14T11:18:52;99842.41;;;8.11;100.00
804;BME280;25687;49.976;8.240;2022-11-14T11:21:20;99831.47;;;8.24;100.00
804;BME280;25687;49.976;8.240;2022-11-14T11:26:23;99823.56;;;8.12;100.00
804;BME280;25687;49.976;8.240;2022-11-14T11:29:02;99821.69;;;8.15;100.00
804;BME280;25687;49.976;8.240;2022-11-14T11:34:22;99824.00;;;8.02;100.00
804;BME280;25687;49.976;8.240;2022-11-14T11:36:52;99827.19;;;8.25;100.00
804;BME280;25687;49.976;8.240;2022-11-14T11:39:26;99827.94;;;8.62;100.00
804;BME280;25687;49.976;8.240;2022-11-14T11:41:53;99814.56;;;8.73;100.00
804;BME280;25687;49.976;8.240;2022-11-14T11:44:20;99816.16;;;8.58;100.00
804;BME280;25687;49.976;8.240;2022-11-14T11:46:55;99806.03;;;8.72;100.00
804;BME280;25687;49.976;8.240;2022-11-14T11:51:55;99808.91;;;9.00;100.00
804;BME280;25687;49.976;8.240;2022-11-14T11:54:25;99808.69;;;8.71;100.00
804;BME280;25687;49.976;8.240;2022-11-14T11:56:55;99805.50;;;8.83;100.00
804;BME280;25687;49.976;8.240;2022-11-14T12:02:02;99791.13;;;9.13;100.00
804;BME280;25687;49.976;8.240;2022-11-14T12:04:37;99799.88;;;8.93;100.00
804;BME280;25687;49.976;8.240;2022-11-14T12:07:14;99797.13;;;8.80;100.00
804;BME280;25687;49.976;8.240;2022-11-14T12:09:41;99795.41;;;8.96;100.00
804;BME280;25687;49.976;8.240;2022-11-14T12:18:29;99786.88;;;9.28;100.00
804;BME280;25687;49.976;8.240;2022-11-14T12:26:47;99795.19;;;9.17;100.00
804;BME280;25687;49.976;8.240;2022-11-14T12:29:46;99794.09;;;9.05;100.00
804;BME280;25687;49.976;8.240;2022-11-14T12:32:21;99786.22;;;9.40;100.00
804;BME280;25687;49.976;8.240;2022-11-14T12:34:56;99788.41;;;9.48;100.00
804;BME280;25687;49.976;8.240;2022-11-14T12:40:01;99781.38;;;9.19;100.00
804;BME280;25687;49.976;8.240;2022-11-14T12:42:29;99779.78;;;9.49;100.00
804;BME280;25687;49.976;8.240;2022-11-14T12:44:55;99779.56;;;9.22;100.00
804;BME280;25687;49.976;8.240;2022-11-14T12:47:25;99788.53;;;9.13;100.00
804;BME280;25687;49.976;8.240;2022-11-14T12:58:01;99765.53;;;9.11;100.00
804;BME280;25687;49.976;8.240;2022-11-14T13:00:37;99767.88;;;9.16;100.00
804;BME280;25687;49.976;8.240;2022-11-14T13:03:29;99766.28;;;8.97;100.00
804;BME280;25687;49.976;8.240;2022-11-14T13:06:08;99762.88;;;9.13;100.00
804;BME280;25687;49.976;8.240;2022-11-14T13:14:18;99749.34;;;9.11;100.00
804;BME280;25687;49.976;8.240;2022-11-14T13:20:00;99755.38;;;9.10;100.00
804;BME280;25687;49.976;8.240;2022-11-14T13:22:45;99747.09;;;9.04;100.00
804;BME280;25687;49.976;8.240;2022-11-14T13:25:19;99752.22;;;9.04;100.00
804;BME280;25687;49.976;8.240;2022-11-14T13:27:45;99745.59;;;8.84;100.00
804;BME280;25687;49.976;8.240;2022-11-14T13:30:10;99748.00;;;9.03;100.00
804;BME280;25687;49.976;8.240;2022-11-14T13:35:10;99742.78;;;8.89;100.00
804;BME280;25687;49.976;8.240;2022-11-14T13:44:03;99730.78;;;9.06;100.00
804;BME280;25687;49.976;8.240;2022-11-14T13:47:16;99737.97;;;8.83;100.00
804;BME280;25687;49.976;8.240;2022-11-14T13:50:05;99739.28;;;8.74;100.00
804;BME280;25687;49.976;8.240;2022-11-14T13:52:33;99736.81;;;8.88;100.00
804;BME280;25687;49.976;8.240;2022-11-14T13:55:01;99733.84;;;9.12;100.00
804;BME280;25687;49.976;8.240;2022-11-14T13:57:55;99737.50;;;8.92;100.00
804;BME280;25687;49.976;8.240;2022-11-14T14:00:28;99729.03;;;8.90;100.00
804;BME280;25687;49.976;8.240;2022-11-14T14:03:22;99725.25;;;9.13;100.00
804;BME280;25687;49.976;8.240;2022-11-14T14:13:59;99736.00;;;9.66;100.00
804;BME280;25687;49.976;8.240;2022-11-14T14:16:52;99729.03;;;9.68;100.00
804;BME280;25687;49.976;8.240;2022-11-14T14:22:27;99732.59;;;9.35;100.00
804;BME280;25687;49.976;8.240;2022-11-14T14:25:08;99724.06;;;9.19;100.00
804;BME280;25687;49.976;8.240;2022-11-14T14:27:59;99719.47;;;9.40;100.00
804;BME280;25687;49.976;8.240;2022-11-14T14:30:26;99718.44;;;9.59;100.00
804;BME280;25687;49.976;8.240;2022-11-14T14:35:34;99712.97;;;9.18;100.00
804;BME280;25687;49.976;8.240;2022-11-14T14:38:00;99715.31;;;9.23;100.00
804;BME280;25687;49.976;8.240;2022-11-14T14:40:32;99719.09;;;9.32;100.00
804;BME280;25687;49.976;8.240;2022-11-14T14:43:00;99711.63;;;9.43;100.00
804;BME280;25687;49.976;8.240;2022-11-14T14:45:27;99712.38;;;9.45;100.00
804;BME280;25687;49.976;8.240;2022-11-14T14:48:02;99707.94;;;9.33;100.00